sensor_id;sensor_type;location;lat;lon;timestamp;P1;durP1;ratioP1;P2;durP2;ratioP2
57627;SDS011;43451;49.060;10.616;2024-03-02T00:00:18;18.08;;;11.70;;
57627;SDS011;43451;49.060;10.616;2024-03-02T00:02:46;21.13;;;11.82;;
57627;SDS011;43451;49.060;10.616;2024-03-02T00:05:13;20.20;;;11.05;;
57627;SDS011;43451;49.060;10.616;2024-03-02T00:07:44;20.55;;;12.00;;
57627;SDS011;43451;49.060;10.616;2024-03-02T00:10:12;18.80;;;11.75;;
57627;SDS011;43451;49.060;10.616;2024-03-02T00:12:41;18.38;;;11.63;;
57627;SDS011;43451;49.060;10.616;2024-03-02T00:15:53;19.13;;;11.20;;
57627;SDS011;43451;49.060;10.616;2024-03-02T00:17:53;19.38;;;11.20;;
57627;SDS011;43451;49.060;10.616;2024-03-02T00:20:21;19.08;;;10.80;;
57627;SDS011;43451;49.060;10.616;2024-03-02T00:22:48;19.52;;;12.50;;
57627;SDS011;43451;49.060;10.616;2024-03-02T00:25:15;17.70;;;10.98;;
57627;SDS011;43451;49.060;10.616;2024-03-02T00:27:40;18.65;;;11.52;;
57627;SDS011;43451;49.060;10.616;2024-03-02T00:30:30;17.60;;;11.02;;
57627;SDS011;43451;49.060;10.616;2024-03-02T00:33:16;19.08;;;11.93;;
57627;SDS011;43451;49.060;10.616;2024-03-02T00:35:44;19.25;;;11.05;;
57627;SDS011;43451;49.060;10.616;2024-03-02T00:40:35;20.67;;;11.20;;
57627;SDS011;43451;49.060;10.616;2024-03-02T00:43:01;18.05;;;10.93;;
57627;SDS011;43451;49.060;10.616;2024-03-02T00:45:28;20.50;;;12.17;;
57627;SDS011;43451;49.060;10.616;2024-03-02T00:47:54;18.58;;;11.48;;
57627;SDS011;43451;49.060;10.616;2024-03-02T00:50:19;19.30;;;11.30;;
57627;SDS011;43451;49.060;10.616;2024-03-02T00:52:46;18.52;;;11.13;;
57627;SDS011;43451;49.060;10.616;2024-03-02T00:55:13;18.58;;;11.57;;
57627;SDS011;43451;49.060;10.616;2024-03-02T00:57:39;19.30;;;12.40;;
57627;SDS011;43451;49.060;10.616;2024-03-02T01:00:06;17.98;;;11.55;;
57627;SDS011;43451;49.060;10.616;2024-03-02T01:02:35;19.70;;;11.93;;
57627;SDS011;43451;49.060;10.616;2024-03-02T01:05:01;19.73;;;12.30;;
57627;SDS011;43451;49.060;10.616;2024-03-02T01:07:27;18.85;;;11.65;;
57627;SDS011;43451;49.060;10.616;2024-03-02T01:09:52;19.13;;;12.07;;
57627;SDS011;43451;49.060;10.616;2024-03-02T01:12:18;15.10;;;9.68;;
57627;SDS011;43451;49.060;10.616;2024-03-02T01:14:43;17.00;;;11.00;;
57627;SDS011;43451;49.060;10.616;2024-03-02T01:17:09;15.15;;;10.60;;
57627;SDS011;43451;49.060;10.616;2024-03-02T01:19:34;16.55;;;10.50;;
57627;SDS011;43451;49.060;10.616;2024-03-02T01:22:00;17.05;;;10.73;;
57627;SDS011;43451;49.060;10.616;2024-03-02T01:24:26;17.17;;;10.88;;
57627;SDS011;43451;49.060;10.616;2024-03-02T01:26:51;18.15;;;11.07;;
57627;SDS011;43451;49.060;10.616;2024-03-02T01:29:17;18.38;;;11.07;;
57627;SDS011;43451;49.060;10.616;2024-03-02T01:31:43;18.48;;;11.00;;
57627;SDS011;43451;49.060;10.616;2024-03-02T01:34:09;19.58;;;11.85;;
57627;SDS011;43451;49.060;10.616;2024-03-02T01:36:34;17.90;;;10.93;;
57627;SDS011;43451;49.060;10.616;2024-03-02T01:39:00;18.38;;;10.88;;
57627;SDS011;43451;49.060;10.616;2024-03-02T01:41:26;19.92;;;11.43;;
57627;SDS011;43451;49.060;10.616;2024-03-02T01:43:51;17.45;;;10.75;;
57627;SDS011;43451;49.060;10.616;2024-03-02T01:46:17;18.30;;;10.48;;
57627;SDS011;43451;49.060;10.616;2024-03-02T01:48:43;19.23;;;11.35;;
57627;SDS011;43451;49.060;10.616;2024-03-02T01:51:08;19.05;;;10.90;;
57627;SDS011;43451;49.060;10.616;2024-03-02T01:53:35;18.90;;;11.57;;
57627;SDS011;43451;49.060;10.616;2024-03-02T01:56:01;20.73;;;11.82;;
57627;SDS011;43451;49.060;10.616;2024-03-02T01:58:27;19.90;;;11.63;;
57627;SDS011;43451;49.060;10.616;2024-03-02T02:00:53;19.33;;;11.25;;
57627;SDS011;43451;49.060;10.616;2024-03-02T02:03:18;21.50;;;11.57;;
57627;SDS011;43451;49.060;10.616;2024-03-02T02:05:44;21.42;;;12.35;;
57627;SDS011;43451;49.060;10.616;2024-03-02T02:08:12;20.60;;;11.83;;
57627;SDS011;43451;49.060;10.616;2024-03-02T02:10:37;19.77;;;11.65;;
57627;SDS011;43451;49.060;10.616;2024-03-02T02:13:03;20.38;;;12.27;;
57627;SDS011;43451;49.060;10.616;2024-03-02T02:15:29;22.08;;;12.50;;
57627;SDS011;43451;49.060;10.616;2024-03-02T02:17:56;23.02;;;13.23;;
57627;SDS011;43451;49.060;10.616;2024-03-02T02:20:22;24.90;;;13.93;;
57627;SDS011;43451;49.060;10.616;2024-03-02T02:23:01;25.20;;;13.35;;
57627;SDS011;43451;49.060;10.616;2024-03-02T02:25:28;21.45;;;12.10;;
57627;SDS011;43451;49.060;10.616;2024-03-02T02:27:54;20.55;;;11.82;;
57627;SDS011;43451;49.060;10.616;2024-03-02T02:30:27;21.55;;;12.10;;
57627;SDS011;43451;49.060;10.616;2024-03-02T02:32:53;20.90;;;12.02;;
57627;SDS011;43451;49.060;10.616;2024-03-02T02:35:19;19.35;;;11.05;;
57627;SDS011;43451;49.060;10.616;2024-03-02T02:37:45;18.73;;;10.88;;
57627;SDS011;43451;49.060;10.616;2024-03-02T02:40:12;21.50;;;12.13;;
57627;SDS011;43451;49.060;10.616;2024-03-02T02:42:39;21.00;;;11.43;;
57627;SDS011;43451;49.060;10.616;2024-03-02T02:45:05;20.88;;;12.02;;
57627;SDS011;43451;49.060;10.616;2024-03-02T02:47:31;20.85;;;11.95;;
57627;SDS011;43451;49.060;10.616;2024-03-02T02:50:00;20.38;;;11.65;;
57627;SDS011;43451;49.060;10.616;2024-03-02T02:52:31;21.80;;;11.80;;
57627;SDS011;43451;49.060;10.616;2024-03-02T02:54:58;21.73;;;12.32;;
57627;SDS011;43451;49.060;10.616;2024-03-02T02:57:24;22.98;;;12.52;;
57627;SDS011;43451;49.060;10.616;2024-03-02T02:59:50;21.08;;;12.27;;
57627;SDS011;43451;49.060;10.616;2024-03-02T03:02:16;21.33;;;11.82;;
57627;SDS011;43451;49.060;10.616;2024-03-02T03:04:41;25.10;;;13.35;;
57627;SDS011;43451;49.060;10.616;2024-03-02T03:07:07;23.48;;;13.27;;
57627;SDS011;43451;49.060;10.616;2024-03-02T03:09:32;24.55;;;13.50;;
57627;SDS011;43451;49.060;10.616;2024-03-02T03:11:58;21.60;;;12.70;;
57627;SDS011;43451;49.060;10.616;2024-03-02T03:14:23;24.40;;;13.57;;
57627;SDS011;43451;49.060;10.616;2024-03-02T03:16:49;22.73;;;13.27;;
57627;SDS011;43451;49.060;10.616;2024-03-02T03:19:15;22.63;;;13.50;;
57627;SDS011;43451;49.060;10.616;2024-03-02T03:21:43;23.13;;;13.57;;
57627;SDS011;43451;49.060;10.616;2024-03-02T03:24:08;26.23;;;13.77;;
57627;SDS011;43451;49.060;10.616;2024-03-02T03:26:35;23.00;;;12.75;;
57627;SDS011;43451;49.060;10.616;2024-03-02T03:29:01;25.42;;;13.82;;
57627;SDS011;43451;49.060;10.616;2024-03-02T03:31:27;22.67;;;13.10;;
57627;SDS011;43451;49.060;10.616;2024-03-02T03:33:54;21.92;;;12.77;;
57627;SDS011;43451;49.060;10.616;2024-03-02T03:36:19;22.55;;;13.27;;
57627;SDS011;43451;49.060;10.616;2024-03-02T03:38:45;23.40;;;12.50;;
57627;SDS011;43451;49.060;10.616;2024-03-02T03:41:10;22.38;;;12.70;;
57627;SDS011;43451;49.060;10.616;2024-03-02T03:43:35;21.65;;;12.27;;
57627;SDS011;43451;49.060;10.616;2024-03-02T03:46:01;22.15;;;12.60;;
57627;SDS011;43451;49.060;10.616;2024-03-02T03:48:27;21.73;;;13.20;;
57627;SDS011;43451;49.060;10.616;2024-03-02T03:50:55;22.08;;;12.80;;
57627;SDS011;43451;49.060;10.616;2024-03-02T03:53:21;20.38;;;12.27;;
57627;SDS011;43451;49.060;10.616;2024-03-02T03:55:47;22.33;;;13.00;;
57627;SDS011;43451;49.060;10.616;2024-03-02T03:58:14;22.95;;;12.90;;
57627;SDS011;43451;49.060;10.616;2024-03-02T04:00:41;21.23;;;12.40;;
57627;SDS011;43451;49.060;10.616;2024-03-02T04:03:07;20.15;;;12.23;;
57627;SDS011;43451;49.060;10.616;2024-03-02T04:05:33;22.70;;;13.10;;
57627;SDS011;43451;49.060;10.616;2024-03-02T04:07:58;21.83;;;12.35;;
57627;SDS011;43451;49.060;10.616;2024-03-02T04:10:25;19.60;;;11.77;;
57627;SDS011;43451;49.060;10.616;2024-03-02T04:12:50;21.00;;;12.43;;
57627;SDS011;43451;49.060;10.616;2024-03-02T04:15:16;21.27;;;12.93;;
57627;SDS011;43451;49.060;10.616;2024-03-02T04:17:43;22.80;;;12.60;;
57627;SDS011;43451;49.060;10.616;2024-03-02T04:20:09;20.17;;;12.70;;
57627;SDS011;43451;49.060;10.616;2024-03-02T04:22:35;20.17;;;11.82;;
57627;SDS011;43451;49.060;10.616;2024-03-02T04:25:01;22.40;;;13.05;;
57627;SDS011;43451;49.060;10.616;2024-03-02T04:27:29;22.90;;;12.48;;
57627;SDS011;43451;49.060;10.616;2024-03-02T04:29:56;22.58;;;12.60;;
57627;SDS011;43451;49.060;10.616;2024-03-02T04:32:22;21.90;;;12.98;;
57627;SDS011;43451;49.060;10.616;2024-03-02T04:34:47;22.33;;;13.07;;
57627;SDS011;43451;49.060;10.616;2024-03-02T04:37:13;23.83;;;13.18;;
57627;SDS011;43451;49.060;10.616;2024-03-02T04:39:39;21.15;;;12.32;;
57627;SDS011;43451;49.060;10.616;2024-03-02T04:42:05;23.30;;;12.98;;
57627;SDS011;43451;49.060;10.616;2024-03-02T04:44:30;23.42;;;12.50;;
57627;SDS011;43451;49.060;10.616;2024-03-02T04:46:56;22.33;;;13.13;;
57627;SDS011;43451;49.060;10.616;2024-03-02T04:49:21;23.92;;;13.25;;
57627;SDS011;43451;49.060;10.616;2024-03-02T04:51:47;23.77;;;13.05;;
57627;SDS011;43451;49.060;10.616;2024-03-02T04:54:12;24.00;;;13.00;;
57627;SDS011;43451;49.060;10.616;2024-03-02T04:56:39;23.15;;;13.18;;
57627;SDS011;43451;49.060;10.616;2024-03-02T04:59:14;24.25;;;12.30;;
57627;SDS011;43451;49.060;10.616;2024-03-02T05:01:43;27.70;;;14.15;;
57627;SDS011;43451;49.060;10.616;2024-03-02T05:04:09;24.95;;;13.43;;
57627;SDS011;43451;49.060;10.616;2024-03-02T05:06:38;21.42;;;12.70;;
57627;SDS011;43451;49.060;10.616;2024-03-02T05:09:05;23.90;;;12.77;;
57627;SDS011;43451;49.060;10.616;2024-03-02T05:11:34;24.05;;;12.63;;
57627;SDS011;43451;49.060;10.616;2024-03-02T05:14:03;23.30;;;12.25;;
57627;SDS011;43451;49.060;10.616;2024-03-02T05:16:32;22.17;;;12.18;;
57627;SDS011;43451;49.060;10.616;2024-03-02T05:18:58;24.52;;;13.23;;
57627;SDS011;43451;49.060;10.616;2024-03-02T05:21:24;25.08;;;13.27;;
57627;SDS011;43451;49.060;10.616;2024-03-02T05:23:49;27.02;;;13.55;;
57627;SDS011;43451;49.060;10.616;2024-03-02T05:26:15;24.85;;;13.63;;
57627;SDS011;43451;49.060;10.616;2024-03-02T05:28:40;25.83;;;14.07;;
57627;SDS011;43451;49.060;10.616;2024-03-02T05:31:06;25.38;;;13.60;;
57627;SDS011;43451;49.060;10.616;2024-03-02T05:33:31;23.73;;;13.27;;
57627;SDS011;43451;49.060;10.616;2024-03-02T05:35:58;23.08;;;13.07;;
57627;SDS011;43451;49.060;10.616;2024-03-02T05:38:24;25.08;;;13.70;;
57627;SDS011;43451;49.060;10.616;2024-03-02T05:40:49;25.60;;;14.05;;
57627;SDS011;43451;49.060;10.616;2024-03-02T05:43:15;25.55;;;13.90;;
57627;SDS011;43451;49.060;10.616;2024-03-02T05:45:41;23.88;;;13.95;;
57627;SDS011;43451;49.060;10.616;2024-03-02T05:48:07;25.85;;;13.38;;
57627;SDS011;43451;49.060;10.616;2024-03-02T05:50:33;25.98;;;13.82;;
57627;SDS011;43451;49.060;10.616;2024-03-02T05:52:58;26.20;;;14.13;;
57627;SDS011;43451;49.060;10.616;2024-03-02T05:55:24;28.90;;;14.65;;
57627;SDS011;43451;49.060;10.616;2024-03-02T05:57:50;26.67;;;14.40;;
57627;SDS011;43451;49.060;10.616;2024-03-02T06:00:34;26.33;;;13.45;;
57627;SDS011;43451;49.060;10.616;2024-03-02T06:02:59;25.00;;;13.73;;
57627;SDS011;43451;49.060;10.616;2024-03-02T06:05:25;25.88;;;14.10;;
57627;SDS011;43451;49.060;10.616;2024-03-02T06:07:50;26.70;;;14.18;;
57627;SDS011;43451;49.060;10.616;2024-03-02T06:10:16;22.33;;;13.05;;
57627;SDS011;43451;49.060;10.616;2024-03-02T06:12:42;24.63;;;13.85;;
57627;SDS011;43451;49.060;10.616;2024-03-02T06:15:08;21.33;;;12.25;;
57627;SDS011;43451;49.060;10.616;2024-03-02T06:17:37;24.58;;;13.32;;
57627;SDS011;43451;49.060;10.616;2024-03-02T06:20:03;22.20;;;13.15;;
57627;SDS011;43451;49.060;10.616;2024-03-02T06:22:29;24.70;;;13.50;;
57627;SDS011;43451;49.060;10.616;2024-03-02T06:24:54;24.55;;;14.20;;
57627;SDS011;43451;49.060;10.616;2024-03-02T06:27:20;22.30;;;12.77;;
57627;SDS011;43451;49.060;10.616;2024-03-02T06:29:45;23.80;;;13.45;;
57627;SDS011;43451;49.060;10.616;2024-03-02T06:32:11;22.65;;;12.77;;
57627;SDS011;43451;49.060;10.616;2024-03-02T06:34:36;22.23;;;12.85;;
57627;SDS011;43451;49.060;10.616;2024-03-02T06:37:02;21.33;;;12.63;;
57627;SDS011;43451;49.060;10.616;2024-03-02T06:39:28;22.85;;;12.55;;
57627;SDS011;43451;49.060;10.616;2024-03-02T06:41:53;20.38;;;12.02;;
57627;SDS011;43451;49.060;10.616;2024-03-02T06:44:19;20.50;;;12.60;;
57627;SDS011;43451;49.060;10.616;2024-03-02T06:46:44;21.98;;;12.50;;
57627;SDS011;43451;49.060;10.616;2024-03-02T06:49:10;22.33;;;12.88;;
57627;SDS011;43451;49.060;10.616;2024-03-02T06:51:36;21.55;;;12.88;;
57627;SDS011;43451;49.060;10.616;2024-03-02T06:54:01;22.95;;;13.05;;
57627;SDS011;43451;49.060;10.616;2024-03-02T06:56:27;24.60;;;13.70;;
57627;SDS011;43451;49.060;10.616;2024-03-02T06:58:53;24.33;;;13.52;;
57627;SDS011;43451;49.060;10.616;2024-03-02T07:01:18;23.48;;;13.95;;
57627;SDS011;43451;49.060;10.616;2024-03-02T07:03:45;23.65;;;13.88;;
57627;SDS011;43451;49.060;10.616;2024-03-02T07:06:12;27.02;;;14.63;;
57627;SDS011;43451;49.060;10.616;2024-03-02T07:08:37;24.80;;;14.00;;
57627;SDS011;43451;49.060;10.616;2024-03-02T07:11:03;23.33;;;13.73;;
57627;SDS011;43451;49.060;10.616;2024-03-02T07:13:28;23.63;;;14.25;;
57627;SDS011;43451;49.060;10.616;2024-03-02T07:15:54;24.30;;;14.38;;
57627;SDS011;43451;49.060;10.616;2024-03-02T07:18:39;25.92;;;14.35;;
57627;SDS011;43451;49.060;10.616;2024-03-02T07:21:10;27.05;;;15.13;;
57627;SDS011;43451;49.060;10.616;2024-03-02T07:23:36;24.83;;;14.43;;
57627;SDS011;43451;49.060;10.616;2024-03-02T07:26:02;24.88;;;14.40;;
57627;SDS011;43451;49.060;10.616;2024-03-02T07:28:28;23.13;;;13.77;;
57627;SDS011;43451;49.060;10.616;2024-03-02T07:30:58;23.90;;;13.70;;
57627;SDS011;43451;49.060;10.616;2024-03-02T07:33:26;25.20;;;14.77;;
57627;SDS011;43451;49.060;10.616;2024-03-02T07:35:53;25.45;;;14.23;;
57627;SDS011;43451;49.060;10.616;2024-03-02T07:40:47;23.55;;;13.95;;
57627;SDS011;43451;49.060;10.616;2024-03-02T07:43:16;24.38;;;14.02;;
57627;SDS011;43451;49.060;10.616;2024-03-02T07:45:42;23.73;;;13.35;;
57627;SDS011;43451;49.060;10.616;2024-03-02T07:48:07;22.40;;;13.60;;
57627;SDS011;43451;49.060;10.616;2024-03-02T07:50:33;24.08;;;13.30;;
57627;SDS011;43451;49.060;10.616;2024-03-02T07:53:00;20.27;;;12.68;;
57627;SDS011;43451;49.060;10.616;2024-03-02T07:55:26;20.60;;;12.15;;
57627;SDS011;43451;49.060;10.616;2024-03-02T07:57:52;19.67;;;12.35;;
57627;SDS011;43451;49.060;10.616;2024-03-02T08:00:18;24.13;;;14.13;;
57627;SDS011;43451;49.060;10.616;2024-03-02T08:02:43;23.42;;;12.90;;
57627;SDS011;43451;49.060;10.616;2024-03-02T08:05:09;19.35;;;12.00;;
57627;SDS011;43451;49.060;10.616;2024-03-02T08:07:35;21.23;;;12.40;;
57627;SDS011;43451;49.060;10.616;2024-03-02T08:10:01;20.92;;;12.60;;
57627;SDS011;43451;49.060;10.616;2024-03-02T08:12:27;19.13;;;11.80;;
57627;SDS011;43451;49.060;10.616;2024-03-02T08:14:52;19.67;;;11.70;;
57627;SDS011;43451;49.060;10.616;2024-03-02T08:17:18;20.10;;;12.40;;
57627;SDS011;43451;49.060;10.616;2024-03-02T08:19:43;19.88;;;12.27;;
57627;SDS011;43451;49.060;10.616;2024-03-02T08:22:09;21.20;;;12.60;;
57627;SDS011;43451;49.060;10.616;2024-03-02T08:24:35;19.23;;;12.20;;
57627;SDS011;43451;49.060;10.616;2024-03-02T08:27:01;20.15;;;12.65;;
57627;SDS011;43451;49.060;10.616;2024-03-02T08:29:27;20.70;;;12.65;;
57627;SDS011;43451;49.060;10.616;2024-03-02T08:31:53;19.52;;;12.15;;
57627;SDS011;43451;49.060;10.616;2024-03-02T08:34:19;19.13;;;12.02;;
57627;SDS011;43451;49.060;10.616;2024-03-02T08:36:45;19.92;;;12.57;;
57627;SDS011;43451;49.060;10.616;2024-03-02T08:39:11;19.08;;;11.85;;
57627;SDS011;43451;49.060;10.616;2024-03-02T08:41:41;19.52;;;12.05;;
57627;SDS011;43451;49.060;10.616;2024-03-02T08:46:34;19.55;;;11.50;;
57627;SDS011;43451;49.060;10.616;2024-03-02T08:48:59;20.92;;;11.50;;
57627;SDS011;43451;49.060;10.616;2024-03-02T08:51:25;19.13;;;11.43;;
57627;SDS011;43451;49.060;10.616;2024-03-02T08:53:51;19.33;;;11.75;;
57627;SDS011;43451;49.060;10.616;2024-03-02T08:56:16;19.63;;;12.15;;
57627;SDS011;43451;49.060;10.616;2024-03-02T08:58:42;19.45;;;11.73;;
57627;SDS011;43451;49.060;10.616;2024-03-02T09:01:09;18.10;;;11.13;;
57627;SDS011;43451;49.060;10.616;2024-03-02T09:03:36;19.30;;;11.60;;
57627;SDS011;43451;49.060;10.616;2024-03-02T09:06:02;18.02;;;11.57;;
57627;SDS011;43451;49.060;10.616;2024-03-02T09:08:28;19.70;;;11.13;;
57627;SDS011;43451;49.060;10.616;2024-03-02T09:10:54;16.70;;;10.40;;
57627;SDS011;43451;49.060;10.616;2024-03-02T09:13:21;17.67;;;11.03;;
57627;SDS011;43451;49.060;10.616;2024-03-02T09:15:47;18.08;;;10.85;;
57627;SDS011;43451;49.060;10.616;2024-03-02T09:18:13;16.35;;;10.95;;
57627;SDS011;43451;49.060;10.616;2024-03-02T09:20:39;18.35;;;10.82;;
57627;SDS011;43451;49.060;10.616;2024-03-02T09:23:04;16.27;;;10.45;;
57627;SDS011;43451;49.060;10.616;2024-03-02T09:25:30;16.25;;;10.52;;
57627;SDS011;43451;49.060;10.616;2024-03-02T09:27:55;16.08;;;10.85;;
57627;SDS011;43451;49.060;10.616;2024-03-02T09:30:21;17.27;;;10.40;;
57627;SDS011;43451;49.060;10.616;2024-03-02T09:32:47;14.95;;;10.00;;
57627;SDS011;43451;49.060;10.616;2024-03-02T09:35:13;12.45;;;9.13;;
57627;SDS011;43451;49.060;10.616;2024-03-02T09:37:38;13.68;;;8.75;;
57627;SDS011;43451;49.060;10.616;2024-03-02T09:40:04;13.20;;;9.15;;
57627;SDS011;43451;49.060;10.616;2024-03-02T09:42:31;12.48;;;8.73;;
57627;SDS011;43451;49.060;10.616;2024-03-02T09:44:57;13.52;;;8.80;;
57627;SDS011;43451;49.060;10.616;2024-03-02T09:47:23;13.00;;;8.75;;
57627;SDS011;43451;49.060;10.616;2024-03-02T09:49:49;13.50;;;8.95;;
57627;SDS011;43451;49.060;10.616;2024-03-02T09:52:15;13.32;;;9.38;;
57627;SDS011;43451;49.060;10.616;2024-03-02T09:54:41;14.27;;;9.30;;
57627;SDS011;43451;49.060;10.616;2024-03-02T09:57:07;13.02;;;9.00;;
57627;SDS011;43451;49.060;10.616;2024-03-02T09:59:32;13.52;;;8.38;;
57627;SDS011;43451;49.060;10.616;2024-03-02T10:01:59;11.52;;;7.60;;
57627;SDS011;43451;49.060;10.616;2024-03-02T10:04:31;12.30;;;8.25;;
57627;SDS011;43451;49.060;10.616;2024-03-02T10:09:52;12.15;;;7.55;;
57627;SDS011;43451;49.060;10.616;2024-03-02T10:12:18;12.63;;;8.18;;
57627;SDS011;43451;49.060;10.616;2024-03-02T10:14:43;10.18;;;7.78;;
57627;SDS011;43451;49.060;10.616;2024-03-02T10:17:11;10.80;;;7.32;;
57627;SDS011;43451;49.060;10.616;2024-03-02T10:19:37;9.88;;;6.18;;
57627;SDS011;43451;49.060;10.616;2024-03-02T10:22:04;9.90;;;6.75;;
57627;SDS011;43451;49.060;10.616;2024-03-02T10:24:35;11.40;;;6.77;;
57627;SDS011;43451;49.060;10.616;2024-03-02T10:27:02;9.15;;;6.22;;
57627;SDS011;43451;49.060;10.616;2024-03-02T10:29:31;7.93;;;5.78;;
57627;SDS011;43451;49.060;10.616;2024-03-02T10:31:57;8.93;;;5.80;;
57627;SDS011;43451;49.060;10.616;2024-03-02T10:34:24;8.13;;;5.82;;
57627;SDS011;43451;49.060;10.616;2024-03-02T10:36:50;8.60;;;5.88;;
57627;SDS011;43451;49.060;10.616;2024-03-02T10:39:16;8.88;;;6.60;;
57627;SDS011;43451;49.060;10.616;2024-03-02T10:41:42;9.30;;;6.00;;
57627;SDS011;43451;49.060;10.616;2024-03-02T10:44:10;7.75;;;5.88;;
57627;SDS011;43451;49.060;10.616;2024-03-02T10:46:36;9.75;;;6.25;;
57627;SDS011;43451;49.060;10.616;2024-03-02T10:49:03;9.52;;;6.68;;
57627;SDS011;43451;49.060;10.616;2024-03-02T10:51:31;10.25;;;6.63;;
57627;SDS011;43451;49.060;10.616;2024-03-02T10:54:01;9.07;;;6.28;;
57627;SDS011;43451;49.060;10.616;2024-03-02T10:56:29;11.52;;;7.50;;
57627;SDS011;43451;49.060;10.616;2024-03-02T10:59:07;10.32;;;7.13;;
57627;SDS011;43451;49.060;10.616;2024-03-02T11:01:47;9.75;;;6.63;;
57627;SDS011;43451;49.060;10.616;2024-03-02T11:04:16;10.50;;;7.53;;
57627;SDS011;43451;49.060;10.616;2024-03-02T11:06:49;9.93;;;7.22;;
57627;SDS011;43451;49.060;10.616;2024-03-02T11:09:16;11.60;;;7.10;;
57627;SDS011;43451;49.060;10.616;2024-03-02T11:11:44;9.23;;;6.57;;
57627;SDS011;43451;49.060;10.616;2024-03-02T11:14:14;11.45;;;6.40;;
57627;SDS011;43451;49.060;10.616;2024-03-02T11:16:42;8.60;;;5.60;;
57627;SDS011;43451;49.060;10.616;2024-03-02T11:19:14;6.88;;;5.63;;
57627;SDS011;43451;49.060;10.616;2024-03-02T11:21:41;7.32;;;5.70;;
57627;SDS011;43451;49.060;10.616;2024-03-02T11:26:52;8.75;;;5.13;;
57627;SDS011;43451;49.060;10.616;2024-03-02T11:32:02;8.40;;;4.82;;
57627;SDS011;43451;49.060;10.616;2024-03-02T11:34:32;8.60;;;5.50;;
57627;SDS011;43451;49.060;10.616;2024-03-02T11:36:59;10.48;;;5.68;;
57627;SDS011;43451;49.060;10.616;2024-03-02T11:39:27;7.10;;;4.70;;
57627;SDS011;43451;49.060;10.616;2024-03-02T11:41:53;6.90;;;4.80;;
57627;SDS011;43451;49.060;10.616;2024-03-02T11:44:20;6.07;;;4.20;;
57627;SDS011;43451;49.060;10.616;2024-03-02T11:46:47;6.38;;;4.60;;
57627;SDS011;43451;49.060;10.616;2024-03-02T11:52:11;6.90;;;4.40;;
57627;SDS011;43451;49.060;10.616;2024-03-02T11:54:41;5.45;;;4.10;;
57627;SDS011;43451;49.060;10.616;2024-03-02T11:57:17;5.50;;;3.80;;
57627;SDS011;43451;49.060;10.616;2024-03-02T11:59:44;5.10;;;3.97;;
57627;SDS011;43451;49.060;10.616;2024-03-02T12:02:20;5.40;;;4.18;;
57627;SDS011;43451;49.060;10.616;2024-03-02T12:04:47;6.25;;;4.13;;
57627;SDS011;43451;49.060;10.616;2024-03-02T12:07:20;8.43;;;4.93;;
57627;SDS011;43451;49.060;10.616;2024-03-02T12:09:49;5.25;;;3.80;;
57627;SDS011;43451;49.060;10.616;2024-03-02T12:12:25;5.07;;;3.67;;
57627;SDS011;43451;49.060;10.616;2024-03-02T12:14:52;5.10;;;3.80;;
57627;SDS011;43451;49.060;10.616;2024-03-02T12:17:20;5.68;;;4.18;;
57627;SDS011;43451;49.060;10.616;2024-03-02T12:19:46;5.70;;;3.80;;
57627;SDS011;43451;49.060;10.616;2024-03-02T12:22:11;8.35;;;3.95;;
57627;SDS011;43451;49.060;10.616;2024-03-02T12:24:37;5.53;;;4.20;;
57627;SDS011;43451;49.060;10.616;2024-03-02T12:27:03;6.93;;;4.30;;
57627;SDS011;43451;49.060;10.616;2024-03-02T12:29:30;7.38;;;4.85;;
57627;SDS011;43451;49.060;10.616;2024-03-02T12:31:56;7.05;;;5.00;;
57627;SDS011;43451;49.060;10.616;2024-03-02T12:34:22;10.32;;;5.68;;
57627;SDS011;43451;49.060;10.616;2024-03-02T12:36:50;10.25;;;6.97;;
57627;SDS011;43451;49.060;10.616;2024-03-02T12:39:21;12.25;;;6.97;;
57627;SDS011;43451;49.060;10.616;2024-03-02T12:41:48;11.20;;;7.13;;
57627;SDS011;43451;49.060;10.616;2024-03-02T12:44:15;12.20;;;6.20;;
57627;SDS011;43451;49.060;10.616;2024-03-02T12:46:42;10.95;;;7.30;;
57627;SDS011;43451;49.060;10.616;2024-03-02T12:49:09;14.10;;;8.20;;
57627;SDS011;43451;49.060;10.616;2024-03-02T12:51:39;11.90;;;7.75;;
57627;SDS011;43451;49.060;10.616;2024-03-02T12:54:09;12.27;;;7.97;;
57627;SDS011;43451;49.060;10.616;2024-03-02T12:56:40;13.63;;;8.00;;
57627;SDS011;43451;49.060;10.616;2024-03-02T12:59:10;14.48;;;8.88;;
57627;SDS011;43451;49.060;10.616;2024-03-02T13:01:53;12.80;;;7.97;;
57627;SDS011;43451;49.060;10.616;2024-03-02T13:04:26;13.13;;;8.02;;
57627;SDS011;43451;49.060;10.616;2024-03-02T13:06:54;12.90;;;8.25;;
57627;SDS011;43451;49.060;10.616;2024-03-02T13:09:21;12.52;;;8.25;;
57627;SDS011;43451;49.060;10.616;2024-03-02T13:11:47;7.72;;;5.20;;
57627;SDS011;43451;49.060;10.616;2024-03-02T13:14:13;12.80;;;7.45;;
57627;SDS011;43451;49.060;10.616;2024-03-02T13:16:39;13.82;;;8.52;;
57627;SDS011;43451;49.060;10.616;2024-03-02T13:19:08;14.10;;;8.88;;
57627;SDS011;43451;49.060;10.616;2024-03-02T13:21:34;14.10;;;9.30;;
57627;SDS011;43451;49.060;10.616;2024-03-02T13:24:00;20.08;;;11.02;;
57627;SDS011;43451;49.060;10.616;2024-03-02T13:26:26;14.85;;;9.00;;
57627;SDS011;43451;49.060;10.616;2024-03-02T13:28:52;12.98;;;8.05;;
57627;SDS011;43451;49.060;10.616;2024-03-02T13:31:18;15.65;;;9.07;;
57627;SDS011;43451;49.060;10.616;2024-03-02T13:33:43;25.10;;;10.00;;
57627;SDS011;43451;49.060;10.616;2024-03-02T13:36:09;39.05;;;11.43;;
57627;SDS011;43451;49.060;10.616;2024-03-02T13:38:34;13.77;;;9.13;;
57627;SDS011;43451;49.060;10.616;2024-03-02T13:41:01;17.25;;;10.50;;
57627;SDS011;43451;49.060;10.616;2024-03-02T13:43:26;18.75;;;11.38;;
57627;SDS011;43451;49.060;10.616;2024-03-02T13:45:53;18.88;;;12.60;;
57627;SDS011;43451;49.060;10.616;2024-03-02T13:48:19;16.83;;;11.07;;
57627;SDS011;43451;49.060;10.616;2024-03-02T13:50:45;21.83;;;13.93;;
57627;SDS011;43451;49.060;10.616;2024-03-02T13:53:11;21.65;;;14.63;;
57627;SDS011;43451;49.060;10.616;2024-03-02T13:55:37;24.40;;;16.02;;
57627;SDS011;43451;49.060;10.616;2024-03-02T13:58:03;25.95;;;14.00;;
57627;SDS011;43451;49.060;10.616;2024-03-02T14:00:29;19.63;;;13.00;;
57627;SDS011;43451;49.060;10.616;2024-03-02T14:02:55;23.00;;;13.52;;
57627;SDS011;43451;49.060;10.616;2024-03-02T14:05:20;19.58;;;12.88;;
57627;SDS011;43451;49.060;10.616;2024-03-02T14:07:46;20.05;;;12.65;;
57627;SDS011;43451;49.060;10.616;2024-03-02T14:10:11;21.55;;;14.20;;
57627;SDS011;43451;49.060;10.616;2024-03-02T14:12:37;21.73;;;13.75;;
57627;SDS011;43451;49.060;10.616;2024-03-02T14:15:03;22.35;;;13.10;;
57627;SDS011;43451;49.060;10.616;2024-03-02T14:17:29;21.45;;;12.32;;
57627;SDS011;43451;49.060;10.616;2024-03-02T14:19:56;20.52;;;12.43;;
57627;SDS011;43451;49.060;10.616;2024-03-02T14:22:23;22.10;;;12.97;;
57627;SDS011;43451;49.060;10.616;2024-03-02T14:24:49;21.02;;;12.40;;
57627;SDS011;43451;49.060;10.616;2024-03-02T14:27:15;19.00;;;12.38;;
57627;SDS011;43451;49.060;10.616;2024-03-02T14:29:41;20.45;;;13.35;;